sensor_id;sensor_type;location;lat;lon;timestamp;P1;durP1;ratioP1;P2;durP2;ratioP2
76256;SDS011;65074;50.436;8.672;2023-04-24T00:00:42;7.17;;;1.50;;
76256;SDS011;65074;50.436;8.672;2023-04-24T00:03:10;1.40;;;1.05;;
76256;SDS011;65074;50.436;8.672;2023-04-24T00:05:36;1.30;;;0.70;;
76256;SDS011;65074;50.436;8.672;2023-04-24T00:08:01;1.27;;;0.97;;
76256;SDS011;65074;50.436;8.672;2023-04-24T00:10:26;1.30;;;1.20;;
76256;SDS011;65074;50.436;8.672;2023-04-24T00:12:52;4.33;;;0.97;;
76256;SDS011;65074;50.436;8.672;2023-04-24T00:15:17;1.45;;;1.10;;
76256;SDS011;65074;50.436;8.672;2023-04-24T00:17:42;1.35;;;1.15;;
76256;SDS011;65074;50.436;8.672;2023-04-24T00:20:08;2.05;;;1.10;;
76256;SDS011;65074;50.436;8.672;2023-04-24T00:22:35;2.55;;;1.23;;
76256;SDS011;65074;50.436;8.672;2023-04-24T00:25:00;2.07;;;1.53;;
76256;SDS011;65074;50.436;8.672;2023-04-24T00:27:25;3.00;;;1.15;;
76256;SDS011;65074;50.436;8.672;2023-04-24T00:29:51;2.60;;;1.33;;
76256;SDS011;65074;50.436;8.672;2023-04-24T00:32:16;2.13;;;1.00;;
76256;SDS011;65074;50.436;8.672;2023-04-24T00:34:42;1.45;;;1.02;;
76256;SDS011;65074;50.436;8.672;2023-04-24T00:37:08;2.25;;;0.93;;
76256;SDS011;65074;50.436;8.672;2023-04-24T00:39:33;1.80;;;1.20;;
76256;SDS011;65074;50.436;8.672;2023-04-24T00:41:58;3.10;;;1.10;;
76256;SDS011;65074;50.436;8.672;2023-04-24T00:44:24;1.67;;;1.30;;
76256;SDS011;65074;50.436;8.672;2023-04-24T00:46:49;3.80;;;1.10;;
76256;SDS011;65074;50.436;8.672;2023-04-24T00:49:17;1.92;;;1.00;;
76256;SDS011;65074;50.436;8.672;2023-04-24T00:51:43;2.38;;;1.40;;
76256;SDS011;65074;50.436;8.672;2023-04-24T00:54:11;2.83;;;1.30;;
76256;SDS011;65074;50.436;8.672;2023-04-24T00:56:36;1.90;;;1.02;;
76256;SDS011;65074;50.436;8.672;2023-04-24T00:59:03;2.15;;;1.30;;
76256;SDS011;65074;50.436;8.672;2023-04-24T01:01:29;2.33;;;1.13;;
76256;SDS011;65074;50.436;8.672;2023-04-24T01:03:55;2.65;;;1.20;;
76256;SDS011;65074;50.436;8.672;2023-04-24T01:06:22;2.35;;;1.35;;
76256;SDS011;65074;50.436;8.672;2023-04-24T01:08:48;1.67;;;1.20;;
76256;SDS011;65074;50.436;8.672;2023-04-24T01:11:17;1.17;;;1.13;;
76256;SDS011;65074;50.436;8.672;2023-04-24T01:13:44;2.08;;;1.17;;
76256;SDS011;65074;50.436;8.672;2023-04-24T01:16:13;1.60;;;1.10;;
76256;SDS011;65074;50.436;8.672;2023-04-24T01:18:43;1.73;;;1.30;;
76256;SDS011;65074;50.436;8.672;2023-04-24T01:21:16;2.97;;;1.23;;
76256;SDS011;65074;50.436;8.672;2023-04-24T01:23:45;2.28;;;1.10;;
76256;SDS011;65074;50.436;8.672;2023-04-24T01:26:11;1.65;;;0.95;;
76256;SDS011;65074;50.436;8.672;2023-04-24T01:28:37;1.13;;;0.93;;
76256;SDS011;65074;50.436;8.672;2023-04-24T01:31:04;2.97;;;1.20;;
76256;SDS011;65074;50.436;8.672;2023-04-24T01:33:33;1.27;;;0.95;;
76256;SDS011;65074;50.436;8.672;2023-04-24T01:35:58;1.90;;;1.00;;
76256;SDS011;65074;50.436;8.672;2023-04-24T01:38:23;1.73;;;0.90;;
76256;SDS011;65074;50.436;8.672;2023-04-24T01:40:49;1.55;;;1.20;;
76256;SDS011;65074;50.436;8.672;2023-04-24T01:43:16;3.20;;;1.10;;
76256;SDS011;65074;50.436;8.672;2023-04-24T01:45:41;2.67;;;1.50;;
76256;SDS011;65074;50.436;8.672;2023-04-24T01:48:07;2.73;;;1.20;;
76256;SDS011;65074;50.436;8.672;2023-04-24T01:50:32;2.63;;;1.35;;
76256;SDS011;65074;50.436;8.672;2023-04-24T01:53:00;2.85;;;1.60;;
76256;SDS011;65074;50.436;8.672;2023-04-24T01:55:25;4.88;;;1.98;;
76256;SDS011;65074;50.436;8.672;2023-04-24T01:57:52;1.75;;;1.20;;
76256;SDS011;65074;50.436;8.672;2023-04-24T02:00:20;2.08;;;1.52;;
76256;SDS011;65074;50.436;8.672;2023-04-24T02:02:45;2.67;;;1.80;;
76256;SDS011;65074;50.436;8.672;2023-04-24T02:05:13;2.58;;;1.77;;
76256;SDS011;65074;50.436;8.672;2023-04-24T02:07:39;5.38;;;1.95;;
76256;SDS011;65074;50.436;8.672;2023-04-24T02:10:05;3.58;;;2.40;;
76256;SDS011;65074;50.436;8.672;2023-04-24T02:12:33;3.47;;;2.33;;
76256;SDS011;65074;50.436;8.672;2023-04-24T02:15:04;4.68;;;2.55;;
76256;SDS011;65074;50.436;8.672;2023-04-24T02:17:42;2.95;;;2.38;;
76256;SDS011;65074;50.436;8.672;2023-04-24T02:20:16;3.17;;;2.67;;
76256;SDS011;65074;50.436;8.672;2023-04-24T02:23:05;4.03;;;2.60;;
76256;SDS011;65074;50.436;8.672;2023-04-24T02:25:48;6.70;;;2.67;;
76256;SDS011;65074;50.436;8.672;2023-04-24T02:28:26;4.57;;;3.08;;
76256;SDS011;65074;50.436;8.672;2023-04-24T02:31:00;7.28;;;3.40;;
76256;SDS011;65074;50.436;8.672;2023-04-24T02:36:08;3.22;;;2.33;;
76256;SDS011;65074;50.436;8.672;2023-04-24T02:38:47;3.25;;;2.30;;
76256;SDS011;65074;50.436;8.672;2023-04-24T02:41:20;2.75;;;2.40;;
76256;SDS011;65074;50.436;8.672;2023-04-24T02:44:00;3.20;;;2.45;;
76256;SDS011;65074;50.436;8.672;2023-04-24T02:46:40;2.55;;;2.10;;
76256;SDS011;65074;50.436;8.672;2023-04-24T02:49:14;3.08;;;2.22;;
76256;SDS011;65074;50.436;8.672;2023-04-24T02:51:42;3.75;;;2.42;;
76256;SDS011;65074;50.436;8.672;2023-04-24T02:54:12;3.28;;;2.15;;
76256;SDS011;65074;50.436;8.672;2023-04-24T02:56:44;3.75;;;2.10;;
76256;SDS011;65074;50.436;8.672;2023-04-24T02:59:12;2.72;;;2.20;;
76256;SDS011;65074;50.436;8.672;2023-04-24T03:01:53;2.42;;;2.22;;
76256;SDS011;65074;50.436;8.672;2023-04-24T03:04:20;1.98;;;1.77;;
76256;SDS011;65074;50.436;8.672;2023-04-24T03:06:52;4.40;;;2.20;;
76256;SDS011;65074;50.436;8.672;2023-04-24T03:09:36;3.33;;;2.33;;
76256;SDS011;65074;50.436;8.672;2023-04-24T03:12:09;3.85;;;2.30;;
76256;SDS011;65074;50.436;8.672;2023-04-24T03:14:37;2.65;;;2.10;;
76256;SDS011;65074;50.436;8.672;2023-04-24T03:17:14;4.28;;;2.15;;
76256;SDS011;65074;50.436;8.672;2023-04-24T03:19:48;2.63;;;1.92;;
76256;SDS011;65074;50.436;8.672;2023-04-24T03:22:23;1.67;;;1.27;;
76256;SDS011;65074;50.436;8.672;2023-04-24T03:25:00;2.15;;;1.50;;
76256;SDS011;65074;50.436;8.672;2023-04-24T03:28:01;2.40;;;1.08;;
76256;SDS011;65074;50.436;8.672;2023-04-24T03:30:39;2.17;;;1.48;;
76256;SDS011;65074;50.436;8.672;2023-04-24T03:33:21;2.28;;;1.33;;
76256;SDS011;65074;50.436;8.672;2023-04-24T03:36:28;1.92;;;1.65;;
76256;SDS011;65074;50.436;8.672;2023-04-24T03:39:05;1.13;;;0.90;;
76256;SDS011;65074;50.436;8.672;2023-04-24T03:42:04;2.00;;;1.10;;
76256;SDS011;65074;50.436;8.672;2023-04-24T03:44:52;2.65;;;1.27;;
76256;SDS011;65074;50.436;8.672;2023-04-24T03:47:42;1.48;;;1.08;;
76256;SDS011;65074;50.436;8.672;2023-04-24T03:50:24;1.33;;;0.90;;
76256;SDS011;65074;50.436;8.672;2023-04-24T03:52:49;2.55;;;1.20;;
76256;SDS011;65074;50.436;8.672;2023-04-24T03:55:25;1.60;;;1.10;;
76256;SDS011;65074;50.436;8.672;2023-04-24T03:57:51;1.13;;;0.90;;
76256;SDS011;65074;50.436;8.672;2023-04-24T04:00:21;1.27;;;1.15;;
76256;SDS011;65074;50.436;8.672;2023-04-24T04:02:52;1.55;;;1.02;;
76256;SDS011;65074;50.436;8.672;2023-04-24T04:05:18;1.45;;;1.13;;
76256;SDS011;65074;50.436;8.672;2023-04-24T04:07:43;1.88;;;0.93;;
76256;SDS011;65074;50.436;8.672;2023-04-24T04:10:08;1.67;;;1.00;;
76256;SDS011;65074;50.436;8.672;2023-04-24T04:12:35;1.60;;;1.10;;
76256;SDS011;65074;50.436;8.672;2023-04-24T04:15:01;4.75;;;1.23;;
76256;SDS011;65074;50.436;8.672;2023-04-24T04:17:26;1.70;;;0.90;;
76256;SDS011;65074;50.436;8.672;2023-04-24T04:19:52;0.80;;;0.80;;
76256;SDS011;65074;50.436;8.672;2023-04-24T04:22:17;3.47;;;1.00;;
76256;SDS011;65074;50.436;8.672;2023-04-24T04:24:46;2.65;;;1.25;;
76256;SDS011;65074;50.436;8.672;2023-04-24T04:27:12;1.55;;;1.05;;
76256;SDS011;65074;50.436;8.672;2023-04-24T04:29:45;4.40;;;1.45;;
76256;SDS011;65074;50.436;8.672;2023-04-24T04:32:13;1.52;;;1.20;;
76256;SDS011;65074;50.436;8.672;2023-04-24T04:34:38;1.60;;;1.00;;
76256;SDS011;65074;50.436;8.672;2023-04-24T04:37:06;1.17;;;0.93;;
76256;SDS011;65074;50.436;8.672;2023-04-24T04:39:49;1.50;;;1.10;;
76256;SDS011;65074;50.436;8.672;2023-04-24T04:42:21;1.10;;;0.95;;
76256;SDS011;65074;50.436;8.672;2023-04-24T04:44:48;1.88;;;1.17;;
76256;SDS011;65074;50.436;8.672;2023-04-24T04:47:17;1.80;;;1.30;;
76256;SDS011;65074;50.436;8.672;2023-04-24T04:49:43;1.45;;;1.20;;
76256;SDS011;65074;50.436;8.672;2023-04-24T04:52:16;1.30;;;1.00;;
76256;SDS011;65074;50.436;8.672;2023-04-24T04:54:43;1.92;;;1.27;;
76256;SDS011;65074;50.436;8.672;2023-04-24T04:57:08;1.95;;;1.45;;
76256;SDS011;65074;50.436;8.672;2023-04-24T04:59:34;2.55;;;1.10;;
76256;SDS011;65074;50.436;8.672;2023-04-24T05:02:04;1.50;;;1.27;;
76256;SDS011;65074;50.436;8.672;2023-04-24T05:04:30;2.65;;;1.33;;
76256;SDS011;65074;50.436;8.672;2023-04-24T05:06:56;1.60;;;1.05;;
76256;SDS011;65074;50.436;8.672;2023-04-24T05:09:22;1.02;;;0.88;;
76256;SDS011;65074;50.436;8.672;2023-04-24T05:14:17;1.30;;;1.00;;
76256;SDS011;65074;50.436;8.672;2023-04-24T05:16:44;2.30;;;1.45;;
76256;SDS011;65074;50.436;8.672;2023-04-24T05:19:10;3.58;;;1.38;;
76256;SDS011;65074;50.436;8.672;2023-04-24T05:21:40;1.20;;;0.85;;
76256;SDS011;65074;50.436;8.672;2023-04-24T05:24:06;4.28;;;1.10;;
76256;SDS011;65074;50.436;8.672;2023-04-24T05:27:10;3.20;;;1.33;;
76256;SDS011;65074;50.436;8.672;2023-04-24T05:29:39;1.75;;;1.08;;
76256;SDS011;65074;50.436;8.672;2023-04-24T05:32:05;2.15;;;1.13;;
76256;SDS011;65074;50.436;8.672;2023-04-24T05:34:31;2.72;;;2.33;;
76256;SDS011;65074;50.436;8.672;2023-04-24T05:36:56;2.05;;;1.40;;
76256;SDS011;65074;50.436;8.672;2023-04-24T05:39:22;1.33;;;1.10;;
76256;SDS011;65074;50.436;8.672;2023-04-24T05:41:47;1.85;;;1.40;;
76256;SDS011;65074;50.436;8.672;2023-04-24T05:44:12;1.53;;;1.10;;
76256;SDS011;65074;50.436;8.672;2023-04-24T05:46:38;1.83;;;1.20;;
76256;SDS011;65074;50.436;8.672;2023-04-24T05:49:03;1.37;;;0.90;;
76256;SDS011;65074;50.436;8.672;2023-04-24T05:51:30;2.85;;;0.85;;
76256;SDS011;65074;50.436;8.672;2023-04-24T05:53:56;1.52;;;1.35;;
76256;SDS011;65074;50.436;8.672;2023-04-24T05:56:23;1.83;;;1.38;;
76256;SDS011;65074;50.436;8.672;2023-04-24T05:58:49;1.52;;;1.10;;
76256;SDS011;65074;50.436;8.672;2023-04-24T06:01:14;1.47;;;1.20;;
76256;SDS011;65074;50.436;8.672;2023-04-24T06:03:41;4.32;;;1.42;;
76256;SDS011;65074;50.436;8.672;2023-04-24T06:06:07;3.17;;;1.90;;
76256;SDS011;65074;50.436;8.672;2023-04-24T06:08:34;2.35;;;1.35;;
76256;SDS011;65074;50.436;8.672;2023-04-24T06:11:01;2.30;;;1.60;;
76256;SDS011;65074;50.436;8.672;2023-04-24T06:13:26;2.78;;;1.48;;
76256;SDS011;65074;50.436;8.672;2023-04-24T06:16:18;4.22;;;1.80;;
76256;SDS011;65074;50.436;8.672;2023-04-24T06:18:50;2.55;;;1.60;;
76256;SDS011;65074;50.436;8.672;2023-04-24T06:21:16;3.60;;;1.38;;
76256;SDS011;65074;50.436;8.672;2023-04-24T06:23:41;3.47;;;2.23;;
76256;SDS011;65074;50.436;8.672;2023-04-24T06:26:07;3.63;;;1.83;;
76256;SDS011;65074;50.436;8.672;2023-04-24T06:28:33;3.20;;;1.80;;
76256;SDS011;65074;50.436;8.672;2023-04-24T06:30:58;4.30;;;1.70;;
76256;SDS011;65074;50.436;8.672;2023-04-24T06:33:23;4.67;;;2.33;;
76256;SDS011;65074;50.436;8.672;2023-04-24T06:35:48;4.82;;;1.88;;
76256;SDS011;65074;50.436;8.672;2023-04-24T06:38:13;4.27;;;2.57;;
76256;SDS011;65074;50.436;8.672;2023-04-24T06:40:39;2.42;;;1.80;;
76256;SDS011;65074;50.436;8.672;2023-04-24T06:43:04;2.20;;;1.90;;
76256;SDS011;65074;50.436;8.672;2023-04-24T06:45:31;3.15;;;1.45;;
76256;SDS011;65074;50.436;8.672;2023-04-24T06:47:56;3.50;;;1.47;;
76256;SDS011;65074;50.436;8.672;2023-04-24T06:50:21;2.50;;;1.70;;
76256;SDS011;65074;50.436;8.672;2023-04-24T06:52:47;3.00;;;1.85;;
76256;SDS011;65074;50.436;8.672;2023-04-24T06:55:12;3.22;;;1.95;;
76256;SDS011;65074;50.436;8.672;2023-04-24T06:57:37;3.07;;;2.10;;
76256;SDS011;65074;50.436;8.672;2023-04-24T07:00:03;4.17;;;2.53;;
76256;SDS011;65074;50.436;8.672;2023-04-24T07:02:30;3.58;;;2.30;;
76256;SDS011;65074;50.436;8.672;2023-04-24T07:04:55;4.17;;;2.20;;
76256;SDS011;65074;50.436;8.672;2023-04-24T07:07:20;2.90;;;2.40;;
76256;SDS011;65074;50.436;8.672;2023-04-24T07:09:46;3.20;;;2.13;;
76256;SDS011;65074;50.436;8.672;2023-04-24T07:12:11;4.82;;;2.47;;
76256;SDS011;65074;50.436;8.672;2023-04-24T07:14:37;4.60;;;2.17;;
76256;SDS011;65074;50.436;8.672;2023-04-24T07:17:03;4.65;;;1.48;;
76256;SDS011;65074;50.436;8.672;2023-04-24T07:19:29;3.78;;;2.50;;
76256;SDS011;65074;50.436;8.672;2023-04-24T07:21:54;4.03;;;1.63;;
76256;SDS011;65074;50.436;8.672;2023-04-24T07:24:20;3.38;;;2.30;;
76256;SDS011;65074;50.436;8.672;2023-04-24T07:26:45;4.00;;;1.80;;
76256;SDS011;65074;50.436;8.672;2023-04-24T07:29:11;2.80;;;2.30;;
76256;SDS011;65074;50.436;8.672;2023-04-24T07:31:37;3.50;;;2.20;;
76256;SDS011;65074;50.436;8.672;2023-04-24T07:34:02;3.57;;;2.00;;
76256;SDS011;65074;50.436;8.672;2023-04-24T07:36:27;3.83;;;2.30;;
76256;SDS011;65074;50.436;8.672;2023-04-24T07:38:53;2.00;;;1.63;;
76256;SDS011;65074;50.436;8.672;2023-04-24T07:41:19;1.92;;;1.67;;
76256;SDS011;65074;50.436;8.672;2023-04-24T07:43:44;2.63;;;1.97;;
76256;SDS011;65074;50.436;8.672;2023-04-24T07:46:09;2.40;;;2.03;;
76256;SDS011;65074;50.436;8.672;2023-04-24T07:48:35;2.33;;;2.03;;
76256;SDS011;65074;50.436;8.672;2023-04-24T07:51:00;2.13;;;1.25;;
76256;SDS011;65074;50.436;8.672;2023-04-24T07:53:25;2.63;;;1.97;;
76256;SDS011;65074;50.436;8.672;2023-04-24T07:55:50;4.30;;;2.20;;
76256;SDS011;65074;50.436;8.672;2023-04-24T07:58:16;4.72;;;2.20;;
76256;SDS011;65074;50.436;8.672;2023-04-24T08:00:41;5.33;;;2.20;;
76256;SDS011;65074;50.436;8.672;2023-04-24T08:03:06;3.10;;;1.83;;
76256;SDS011;65074;50.436;8.672;2023-04-24T08:05:32;2.30;;;1.80;;
76256;SDS011;65074;50.436;8.672;2023-04-24T08:07:57;2.47;;;1.63;;
76256;SDS011;65074;50.436;8.672;2023-04-24T08:10:23;3.42;;;2.25;;
76256;SDS011;65074;50.436;8.672;2023-04-24T08:12:49;3.40;;;2.10;;
76256;SDS011;65074;50.436;8.672;2023-04-24T08:15:14;2.63;;;1.48;;
76256;SDS011;65074;50.436;8.672;2023-04-24T08:17:39;4.15;;;2.25;;
76256;SDS011;65074;50.436;8.672;2023-04-24T08:20:05;2.05;;;1.70;;
76256;SDS011;65074;50.436;8.672;2023-04-24T08:22:31;4.03;;;1.75;;
76256;SDS011;65074;50.436;8.672;2023-04-24T08:24:56;1.70;;;1.27;;
76256;SDS011;65074;50.436;8.672;2023-04-24T08:27:22;1.88;;;1.27;;
76256;SDS011;65074;50.436;8.672;2023-04-24T08:29:47;2.17;;;1.80;;
76256;SDS011;65074;50.436;8.672;2023-04-24T08:32:12;2.37;;;1.60;;
76256;SDS011;65074;50.436;8.672;2023-04-24T08:34:38;1.87;;;1.30;;
76256;SDS011;65074;50.436;8.672;2023-04-24T08:37:03;1.40;;;1.30;;
76256;SDS011;65074;50.436;8.672;2023-04-24T08:39:28;1.97;;;1.47;;
76256;SDS011;65074;50.436;8.672;2023-04-24T08:41:54;2.10;;;1.40;;
76256;SDS011;65074;50.436;8.672;2023-04-24T08:44:20;2.17;;;1.70;;
76256;SDS011;65074;50.436;8.672;2023-04-24T08:46:45;1.67;;;1.10;;
76256;SDS011;65074;50.436;8.672;2023-04-24T08:49:13;1.95;;;1.27;;
76256;SDS011;65074;50.436;8.672;2023-04-24T08:51:39;2.97;;;1.40;;
76256;SDS011;65074;50.436;8.672;2023-04-24T08:54:04;2.63;;;1.58;;
76256;SDS011;65074;50.436;8.672;2023-04-24T08:56:29;1.98;;;1.20;;
76256;SDS011;65074;50.436;8.672;2023-04-24T08:58:57;3.22;;;1.60;;
76256;SDS011;65074;50.436;8.672;2023-04-24T09:01:22;1.90;;;1.40;;
76256;SDS011;65074;50.436;8.672;2023-04-24T09:03:49;1.63;;;1.35;;
76256;SDS011;65074;50.436;8.672;2023-04-24T09:06:14;2.17;;;1.35;;
76256;SDS011;65074;50.436;8.672;2023-04-24T09:08:41;2.05;;;1.00;;
76256;SDS011;65074;50.436;8.672;2023-04-24T09:11:07;1.55;;;1.17;;
76256;SDS011;65074;50.436;8.672;2023-04-24T09:13:32;1.98;;;1.23;;
76256;SDS011;65074;50.436;8.672;2023-04-24T09:15:58;2.53;;;1.27;;
76256;SDS011;65074;50.436;8.672;2023-04-24T09:18:25;1.40;;;1.10;;
76256;SDS011;65074;50.436;8.672;2023-04-24T09:21:24;1.92;;;1.38;;
76256;SDS011;65074;50.436;8.672;2023-04-24T09:23:42;1.85;;;1.10;;
76256;SDS011;65074;50.436;8.672;2023-04-24T09:26:08;2.13;;;1.15;;
76256;SDS011;65074;50.436;8.672;2023-04-24T09:28:38;1.05;;;0.82;;
76256;SDS011;65074;50.436;8.672;2023-04-24T09:31:04;4.05;;;1.00;;
76256;SDS011;65074;50.436;8.672;2023-04-24T09:33:30;1.88;;;1.10;;
76256;SDS011;65074;50.436;8.672;2023-04-24T09:35:55;2.90;;;1.00;;
76256;SDS011;65074;50.436;8.672;2023-04-24T09:38:30;1.53;;;1.40;;
76256;SDS011;65074;50.436;8.672;2023-04-24T09:40:55;0.80;;;0.77;;
76256;SDS011;65074;50.436;8.672;2023-04-24T09:43:23;1.52;;;0.85;;
76256;SDS011;65074;50.436;8.672;2023-04-24T09:45:51;2.45;;;1.10;;
76256;SDS011;65074;50.436;8.672;2023-04-24T09:48:20;1.25;;;0.85;;
76256;SDS011;65074;50.436;8.672;2023-04-24T09:50:54;1.73;;;1.00;;
76256;SDS011;65074;50.436;8.672;2023-04-24T09:53:23;1.90;;;1.10;;
76256;SDS011;65074;50.436;8.672;2023-04-24T09:55:48;2.00;;;1.02;;
76256;SDS011;65074;50.436;8.672;2023-04-24T09:58:15;3.35;;;1.02;;
76256;SDS011;65074;50.436;8.672;2023-04-24T10:00:40;1.90;;;0.73;;
76256;SDS011;65074;50.436;8.672;2023-04-24T10:03:06;0.90;;;0.77;;
76256;SDS011;65074;50.436;8.672;2023-04-24T10:05:32;2.10;;;1.00;;
76256;SDS011;65074;50.436;8.672;2023-04-24T10:08:15;1.38;;;0.90;;
76256;SDS011;65074;50.436;8.672;2023-04-24T10:10:46;1.08;;;0.90;;
76256;SDS011;65074;50.436;8.672;2023-04-24T10:13:12;1.17;;;0.90;;
76256;SDS011;65074;50.436;8.672;2023-04-24T10:15:38;2.03;;;0.80;;
76256;SDS011;65074;50.436;8.672;2023-04-24T10:18:05;0.77;;;0.70;;
76256;SDS011;65074;50.436;8.672;2023-04-24T10:20:34;1.70;;;0.95;;
76256;SDS011;65074;50.436;8.672;2023-04-24T10:23:00;2.45;;;1.08;;
76256;SDS011;65074;50.436;8.672;2023-04-24T10:25:26;2.58;;;1.00;;
76256;SDS011;65074;50.436;8.672;2023-04-24T10:27:52;1.10;;;0.82;;
76256;SDS011;65074;50.436;8.672;2023-04-24T10:30:18;0.98;;;0.68;;
76256;SDS011;65074;50.436;8.672;2023-04-24T10:32:43;2.40;;;0.90;;
76256;SDS011;65074;50.436;8.672;2023-04-24T10:35:09;0.70;;;0.60;;
76256;SDS011;65074;50.436;8.672;2023-04-24T10:37:36;1.65;;;0.70;;
76256;SDS011;65074;50.436;8.672;2023-04-24T10:40:02;0.90;;;0.70;;
76256;SDS011;65074;50.436;8.672;2023-04-24T10:42:27;0.88;;;0.52;;
76256;SDS011;65074;50.436;8.672;2023-04-24T10:44:53;1.25;;;0.65;;
76256;SDS011;65074;50.436;8.672;2023-04-24T10:47:19;0.98;;;0.60;;
76256;SDS011;65074;50.436;8.672;2023-04-24T10:49:44;1.00;;;0.65;;
76256;SDS011;65074;50.436;8.672;2023-04-24T10:52:10;1.80;;;0.80;;
76256;SDS011;65074;50.436;8.672;2023-04-24T10:57:25;1.10;;;0.55;;
76256;SDS011;65074;50.436;8.672;2023-04-24T11:02:37;0.80;;;0.52;;
76256;SDS011;65074;50.436;8.672;2023-04-24T11:05:04;0.93;;;0.60;;
76256;SDS011;65074;50.436;8.672;2023-04-24T11:07:29;0.75;;;0.55;;
76256;SDS011;65074;50.436;8.672;2023-04-24T11:09:58;1.58;;;0.60;;
76256;SDS011;65074;50.436;8.672;2023-04-24T11:12:23;1.13;;;0.70;;
76256;SDS011;65074;50.436;8.672;2023-04-24T11:17:30;1.42;;;0.55;;
76256;SDS011;65074;50.436;8.672;2023-04-24T11:20:15;0.60;;;0.60;;
76256;SDS011;65074;50.436;8.672;2023-04-24T11:22:41;2.30;;;0.63;;
76256;SDS011;65074;50.436;8.672;2023-04-24T11:25:07;0.60;;;0.40;;
76256;SDS011;65074;50.436;8.672;2023-04-24T11:27:40;0.80;;;0.30;;
76256;SDS011;65074;50.436;8.672;2023-04-24T11:30:06;1.08;;;0.55;;
76256;SDS011;65074;50.436;8.672;2023-04-24T11:32:35;0.82;;;0.60;;
76256;SDS011;65074;50.436;8.672;2023-04-24T11:35:02;1.20;;;0.77;;
76256;SDS011;65074;50.436;8.672;2023-04-24T11:37:28;0.85;;;0.60;;
76256;SDS011;65074;50.436;8.672;2023-04-24T11:39:55;0.90;;;0.55;;
76256;SDS011;65074;50.436;8.672;2023-04-24T11:42:21;0.98;;;0.50;;
76256;SDS011;65074;50.436;8.672;2023-04-24T11:44:46;1.10;;;0.73;;
76256;SDS011;65074;50.436;8.672;2023-04-24T11:47:12;1.25;;;0.50;;
76256;SDS011;65074;50.436;8.672;2023-04-24T11:49:38;0.75;;;0.57;;
76256;SDS011;65074;50.436;8.672;2023-04-24T11:52:03;0.60;;;0.40;;
76256;SDS011;65074;50.436;8.672;2023-04-24T11:54:29;0.68;;;0.50;;
76256;SDS011;65074;50.436;8.672;2023-04-24T11:56:55;0.85;;;0.68;;
76256;SDS011;65074;50.436;8.672;2023-04-24T11:59:21;1.80;;;0.90;;
76256;SDS011;65074;50.436;8.672;2023-04-24T12:01:46;1.00;;;0.70;;
76256;SDS011;65074;50.436;8.672;2023-04-24T12:04:11;0.80;;;0.80;;
76256;SDS011;65074;50.436;8.672;2023-04-24T12:06:37;1.02;;;0.80;;
76256;SDS011;65074;50.436;8.672;2023-04-24T12:09:02;0.80;;;0.50;;
76256;SDS011;65074;50.436;8.672;2023-04-24T12:11:27;0.80;;;0.57;;
76256;SDS011;65074;50.436;8.672;2023-04-24T12:13:53;1.13;;;0.73;;
76256;SDS011;65074;50.436;8.672;2023-04-24T12:16:18;0.60;;;0.50;;
76256;SDS011;65074;50.436;8.672;2023-04-24T12:18:44;1.02;;;0.85;;
76256;SDS011;65074;50.436;8.672;2023-04-24T12:21:29;2.35;;;0.82;;
76256;SDS011;65074;50.436;8.672;2023-04-24T12:23:56;1.08;;;0.63;;
76256;SDS011;65074;50.436;8.672;2023-04-24T12:26:22;0.77;;;0.70;;
76256;SDS011;65074;50.436;8.672;2023-04-24T12:28:48;1.42;;;0.70;;
76256;SDS011;65074;50.436;8.672;2023-04-24T12:31:16;1.13;;;0.50;;
76256;SDS011;65074;50.436;8.672;2023-04-24T12:33:42;1.77;;;0.40;;
76256;SDS011;65074;50.436;8.672;2023-04-24T12:36:09;0.98;;;0.52;;
76256;SDS011;65074;50.436;8.672;2023-04-24T12:38:35;0.85;;;0.40;;
76256;SDS011;65074;50.436;8.672;2023-04-24T12:41:06;1.65;;;0.70;;
76256;SDS011;65074;50.436;8.672;2023-04-24T12:43:31;0.73;;;0.60;;
76256;SDS011;65074;50.436;8.672;2023-04-24T12:45:57;0.85;;;0.60;;
76256;SDS011;65074;50.436;8.672;2023-04-24T12:48:24;1.00;;;0.50;;
76256;SDS011;65074;50.436;8.672;2023-04-24T12:50:49;1.80;;;0.70;;
76256;SDS011;65074;50.436;8.672;2023-04-24T12:53:14;0.63;;;0.53;;
76256;SDS011;65074;50.436;8.672;2023-04-24T12:55:40;3.55;;;0.80;;
76256;SDS011;65074;50.436;8.672;2023-04-24T12:58:06;1.52;;;0.55;;
76256;SDS011;65074;50.436;8.672;2023-04-24T13:00:31;1.73;;;0.80;;
76256;SDS011;65074;50.436;8.672;2023-04-24T13:02:56;1.60;;;0.97;;
76256;SDS011;65074;50.436;8.672;2023-04-24T13:05:21;2.43;;;0.90;;
76256;SDS011;65074;50.436;8.672;2023-04-24T13:07:47;1.13;;;0.73;;
76256;SDS011;65074;50.436;8.672;2023-04-24T13:10:12;2.22;;;0.73;;
76256;SDS011;65074;50.436;8.672;2023-04-24T13:12:38;1.42;;;1.10;;
76256;SDS011;65074;50.436;8.672;2023-04-24T13:15:04;1.80;;;1.00;;
76256;SDS011;65074;50.436;8.672;2023-04-24T13:17:29;1.90;;;1.05;;
76256;SDS011;65074;50.436;8.672;2023-04-24T13:19:55;0.87;;;0.77;;
76256;SDS011;65074;50.436;8.672;2023-04-24T13:22:20;2.33;;;1.10;;
76256;SDS011;65074;50.436;8.672;2023-04-24T13:24:45;1.40;;;0.90;;
76256;SDS011;65074;50.436;8.672;2023-04-24T13:27:13;1.35;;;0.80;;
76256;SDS011;65074;50.436;8.672;2023-04-24T13:29:38;1.77;;;1.00;;
76256;SDS011;65074;50.436;8.672;2023-04-24T13:32:03;3.13;;;1.20;;
76256;SDS011;65074;50.436;8.672;2023-04-24T13:34:29;2.73;;;1.60;;
76256;SDS011;65074;50.436;8.672;2023-04-24T13:36:54;1.40;;;0.97;;
76256;SDS011;65074;50.436;8.672;2023-04-24T13:39:20;2.60;;;1.33;;
76256;SDS011;65074;50.436;8.672;2023-04-24T13:41:45;1.50;;;1.30;;
76256;SDS011;65074;50.436;8.672;2023-04-24T13:44:13;2.22;;;1.60;;
76256;SDS011;65074;50.436;8.672;2023-04-24T13:46:38;3.50;;;1.85;;
76256;SDS011;65074;50.436;8.672;2023-04-24T13:49:03;2.83;;;1.43;;
76256;SDS011;65074;50.436;8.672;2023-04-24T13:51:29;2.57;;;1.37;;
76256;SDS011;65074;50.436;8.672;2023-04-24T13:53:54;2.80;;;1.60;;
76256;SDS011;65074;50.436;8.672;2023-04-24T13:56:20;2.65;;;1.90;;
76256;SDS011;65074;50.436;8.672;2023-04-24T13:58:45;3.22;;;2.00;;
76256;SDS011;65074;50.436;8.672;2023-04-24T14:01:11;2.30;;;1.70;;
76256;SDS011;65074;50.436;8.672;2023-04-24T14:03:37;4.70;;;2.42;;
76256;SDS011;65074;50.436;8.672;2023-04-24T14:06:02;3.42;;;1.95;;
76256;SDS011;65074;50.436;8.672;2023-04-24T14:08:27;2.28;;;1.65;;
76256;SDS011;65074;50.436;8.672;2023-04-24T14:10:53;3.63;;;1.67;;
76256;SDS011;65074;50.436;8.672;2023-04-24T14:13:18;7.25;;;1.85;;
76256;SDS011;65074;50.436;8.672;2023-04-24T14:15:43;2.80;;;1.83;;
76256;SDS011;65074;50.436;8.672;2023-04-24T14:18:08;3.13;;;1.65;;
76256;SDS011;65074;50.436;8.672;2023-04-24T14:20:34;4.85;;;1.92;;
76256;SDS011;65074;50.436;8.672;2023-04-24T14:22:59;2.53;;;1.60;;
76256;SDS011;65074;50.436;8.672;2023-04-24T14:25:25;1.92;;;1.60;;
76256;SDS011;65074;50.436;8.672;2023-04-24T14:27:50;2.13;;;1.50;;
76256;SDS011;65074;50.436;8.672;2023-04-24T14:30:16;3.38;;;2.10;;
76256;SDS011;65074;50.436;8.672;2023-04-24T14:32:41;3.63;;;1.88;;
76256;SDS011;65074;50.436;8.672;2023-04-24T14:35:06;2.83;;;1.65;;
76256;SDS011;65074;50.436;8.672;2023-04-24T14:37:32;2.20;;;1.75;;
76256;SDS011;65074;50.436;8.672;2023-04-24T14:39:57;3.90;;;1.90;;
76256;SDS011;65074;50.436;8.672;2023-04-24T14:42:22;3.30;;;2.15;;
76256;SDS011;65074;50.436;8.672;2023-04-24T14:44:48;5.83;;;1.60;;
76256;SDS011;65074;50.436;8.672;2023-04-24T14:47:13;4.47;;;2.07;;
76256;SDS011;65074;50.436;8.672;2023-04-24T14:49:38;3.00;;;1.63;;
76256;SDS011;65074;50.436;8.672;2023-04-24T14:52:04;3.60;;;2.10;;
76256;SDS011;65074;50.436;8.672;2023-04-24T14:54:29;2.40;;;2.03;;
76256;SDS011;65074;50.436;8.672;2023-04-24T14:56:55;5.22;;;2.65;;
76256;SDS011;65074;50.436;8.672;2023-04-24T14:59:23;3.63;;;1.75;;
76256;SDS011;65074;50.436;8.672;2023-04-24T15:01:48;4.50;;;2.15;;
76256;SDS011;65074;50.436;8.672;2023-04-24T15:04:15;3.80;;;2.40;;